Wilmington, OH

2:39 AM EST on January 26, 2015 (GMT -0500)
Springfield-Beckley Municipal | Change Station
CLOSE
Current Station
Airport
Location: Springfield,
Elevation: 1050 ft
Nearby Weather Stations
Active Advisory: Winter Weather Advisory Active Notice: Public Information Statement

Elev 1050 ft 39.84 °N, 83.84 °W | Updated 10 minutes ago

Snow
Snow
21 °F
Feels Like 8 °F
N
14
Wind Variable Wind from NNE

Today
High -- | Low -- °F
--% Chance of Precip.
Yesterday
High -- | Low -- °F
Precip. -- in
7:47 AM 5:48 PM
Waxing Crescent, 40% visible
Pressure 29.76 in
Visibility 1.0 miles
Clouds Mostly Cloudy 1000 ft
Overcast 1900 ft
Windchill 8 °F
Dew Point 19 °F
Humidity 93%
Rainfall 0.00 in
Snow Depth Not available.
UV 0 out of 12
Pollen .10 out of 12
Air Quality Not available.
Flu Activity Not available.
SPECI KSGH 260729Z AUTO 03012KT 1SM -SN BR BKN010 OVC019 M06/M07 A2976 RMK AO2 P0000

More Conditions Fewer Conditions

Pressure 29.76 in
Visibility 1.0 miles
Clouds Mostly Cloudy 1000 ft
Overcast 1900 ft
Windchill 8 °F
Dew Point 19 °F
Humidity 93%
Rainfall 0.00 in
Snow Depth Not available.
UV 0 out of 12
Pollen .10 out of 12
Air Quality Not available.
Flu Activity Not available.
SPECI KSGH 260729Z AUTO 03012KT 1SM -SN BR BKN010 OVC019 M06/M07 A2976 RMK AO2 P0000

More Conditions Fewer Conditions

10-Day Weather Forecast

Almanac

Astronomy

Jan. 26, 2015 Rise Set
Actual Time
Civil Twilight
Nautical Twilight
Astronomical Twilight
Moon
Length of Visible Light
Length of Day
Tomorrow will be .
, % of the Moon is Illuminated

Today's Extremes

State Highs State Lows

Community

WunderPhotos

Upload Photos

1,790,155 photos uploaded!

WunderBlogs® & News

Nearby

Air Quality

  Air Quality AQ Index Pollutant
Not available.

Snow Depth

Station Depth Elevation

Earthquake Activity

City Distance Mag. Time & Date
Minimum magnitude displayed is 2.5.

Coastal Water Temperatures

Place Temperature

Nearby Weather Stations